createdAt,value
2023-01-19T00:03:00.593Z,98780.41
2023-01-19T00:06:12.048Z,98785.34
2023-01-19T00:09:19.032Z,98781.25
2023-01-19T00:12:31.685Z,98777.62
2023-01-19T00:15:39.087Z,98782.72
2023-01-19T00:18:47.590Z,98775.34
2023-01-19T00:21:57.454Z,98774.34
2023-01-19T00:25:05.129Z,98784.03
2023-01-19T00:28:15.908Z,98785.19
2023-01-19T00:31:24.730Z,98778.94
2023-01-19T00:34:50.507Z,98779.59
2023-01-19T00:38:02.547Z,98776.16
2023-01-19T00:41:09.183Z,98782.37
2023-01-19T00:44:18.762Z,98784.03
2023-01-19T00:47:25.168Z,98778.28
2023-01-19T00:50:34.119Z,98788.94
2023-01-19T00:53:42.411Z,98780.59
2023-01-19T00:56:50.986Z,98780.25
2023-01-19T00:59:59.476Z,98776.13
2023-01-19T01:03:09.139Z,98769.56
2023-01-19T01:06:15.666Z,98760.88
2023-01-19T01:09:27.046Z,98766.28
2023-01-19T01:12:36.643Z,98764.47
2023-01-19T01:15:45.842Z,98767.28
2023-01-19T01:18:54.705Z,98763.31
2023-01-19T01:22:09.982Z,98759.88
2023-01-19T01:25:18.069Z,98757.88
2023-01-19T01:28:25.501Z,98763.78
2023-01-19T01:31:32.165Z,98767.41
2023-01-19T01:34:38.121Z,98768.06
2023-01-19T01:37:43.981Z,98771.00
2023-01-19T01:40:53.008Z,98755.25
2023-01-19T01:44:00.292Z,98758.84
2023-01-19T01:47:10.992Z,98752.78
2023-01-19T01:50:28.447Z,98760.84
2023-01-19T01:53:36.165Z,98772.44
2023-01-19T01:56:49.047Z,98768.16
2023-01-19T01:59:59.306Z,98762.28
2023-01-19T02:03:10.514Z,98771.44
2023-01-19T02:06:15.981Z,98781.41
2023-01-19T02:09:41.384Z,98793.16
2023-01-19T02:13:09.332Z,98807.91
2023-01-19T02:16:17.403Z,98815.00
2023-01-19T02:19:29.892Z,98790.59
2023-01-19T02:22:44.249Z,98759.13
2023-01-19T02:25:54.734Z,98740.91
2023-01-19T02:29:06.865Z,98744.53
2023-01-19T02:32:14.228Z,98767.81
2023-01-19T02:35:22.575Z,98798.53
2023-01-19T02:38:32.932Z,98810.84
2023-01-19T02:41:48.304Z,98795.63
2023-01-19T02:44:56.083Z,98777.22
2023-01-19T02:48:05.057Z,98769.69
2023-01-19T02:51:18.362Z,98764.00
2023-01-19T02:54:45.758Z,98751.69
2023-01-19T02:58:08.698Z,98743.31
2023-01-19T03:01:31.217Z,98754.62
2023-01-19T03:04:57.472Z,98772.31
2023-01-19T03:08:25.143Z,98772.94
2023-01-19T03:11:37.842Z,98784.84
2023-01-19T03:14:49.830Z,98779.97
2023-01-19T03:18:01.908Z,98771.81
2023-01-19T03:21:09.338Z,98789.94
2023-01-19T03:24:18.298Z,98804.69
2023-01-19T03:27:29.180Z,98818.25
2023-01-19T03:30:47.559Z,98814.81
2023-01-19T03:34:02.227Z,98791.28
2023-01-19T03:37:12.043Z,98763.28
2023-01-19T03:40:21.468Z,98762.91
2023-01-19T03:43:32.137Z,98742.09
2023-01-19T03:46:42.456Z,98724.06
2023-01-19T03:49:55.213Z,98723.28
2023-01-19T03:53:09.293Z,98735.87
2023-01-19T03:56:24.662Z,98740.94
2023-01-19T03:59:33.724Z,98755.31
2023-01-19T04:02:42.892Z,98754.81
2023-01-19T04:05:52.270Z,98781.13
2023-01-19T04:09:01.057Z,98786.34
2023-01-19T04:12:09.618Z,98782.22
2023-01-19T04:15:16.473Z,98766.16
2023-01-19T04:18:23.946Z,98780.69
2023-01-19T04:21:31.757Z,98781.66
2023-01-19T04:24:39.649Z,98784.19
2023-01-19T04:27:45.639Z,98786.78
2023-01-19T04:30:53.816Z,98775.72
2023-01-19T04:34:00.646Z,98782.37
2023-01-19T04:37:09.480Z,98774.78
2023-01-19T04:40:15.847Z,98771.34
2023-01-19T04:43:25.861Z,98772.50
2023-01-19T04:46:31.809Z,98768.50
2023-01-19T04:49:41.778Z,98753.13
2023-01-19T04:52:47.971Z,98743.66
2023-01-19T04:55:57.259Z,98744.78
2023-01-19T04:59:08.163Z,98749.41
2023-01-19T05:02:16.286Z,98764.41
2023-01-19T05:05:23.087Z,98781.59
2023-01-19T05:08:32.958Z,98789.91
2023-01-19T05:11:39.759Z,98804.75
2023-01-19T05:14:48.769Z,98810.00
2023-01-19T05:17:57.794Z,98792.16
2023-01-19T05:21:07.844Z,98796.31
2023-01-19T05:24:12.409Z,98809.25
2023-01-19T05:27:18.018Z,98824.63
2023-01-19T05:30:24.477Z,98828.91
2023-01-19T05:33:32.855Z,98831.94
2023-01-19T05:36:39.814Z,98831.06
2023-01-19T05:39:50.131Z,98821.88
2023-01-19T05:42:56.738Z,98834.28
2023-01-19T05:46:05.439Z,98830.41
2023-01-19T05:49:12.739Z,98824.19
2023-01-19T05:52:18.671Z,98812.75
2023-01-19T05:55:23.384Z,98798.84
2023-01-19T05:58:29.365Z,98810.72
2023-01-19T06:01:38.721Z,98807.50
2023-01-19T06:04:43.765Z,98782.53
2023-01-19T06:07:48.899Z,98774.66
2023-01-19T06:10:57.698Z,98790.28
2023-01-19T06:14:07.368Z,98781.84
2023-01-19T06:17:15.658Z,98781.56
2023-01-19T06:20:21.085Z,98769.91
2023-01-19T06:23:30.697Z,98783.59
2023-01-19T06:26:39.542Z,98787.66
2023-01-19T06:29:44.513Z,98780.25
2023-01-19T06:32:50.872Z,98753.59
2023-01-19T06:35:58.609Z,98765.59
2023-01-19T06:39:07.920Z,98771.19
2023-01-19T06:42:15.324Z,98787.09
2023-01-19T06:45:18.834Z,98802.50
2023-01-19T06:48:23.273Z,98816.09
2023-01-19T06:51:28.810Z,98818.25
2023-01-19T06:54:33.052Z,98814.03
2023-01-19T06:57:38.491Z,98816.69
2023-01-19T07:00:43.918Z,98794.28
2023-01-19T07:03:48.622Z,98816.25
2023-01-19T07:06:52.011Z,98804.44
2023-01-19T07:09:55.682Z,98806.44
2023-01-19T07:13:01.424Z,98789.94
2023-01-19T07:16:10.403Z,98791.88
2023-01-19T07:19:16.107Z,98793.72
2023-01-19T07:22:19.678Z,98785.53
2023-01-19T07:25:25.851Z,98804.41
2023-01-19T07:28:31.797Z,98823.03
2023-01-19T07:31:37.584Z,98819.94
2023-01-19T07:34:41.285Z,98831.47
2023-01-19T07:37:45.365Z,98832.63
2023-01-19T07:40:49.607Z,98818.88
2023-01-19T07:43:54.456Z,98818.25
2023-01-19T07:46:58.532Z,98822.66
2023-01-19T07:50:02.797Z,98829.69
2023-01-19T07:53:07.600Z,98819.41
2023-01-19T07:56:12.257Z,98838.03
2023-01-19T07:59:16.525Z,98833.00
2023-01-19T08:02:21.588Z,98844.34
2023-01-19T08:05:26.045Z,98832.38
2023-01-19T08:08:31.918Z,98853.03
2023-01-19T08:11:37.395Z,98836.69
2023-01-19T08:14:42.035Z,98841.75
2023-01-19T08:17:47.128Z,98828.00
2023-01-19T08:20:51.834Z,98830.25
2023-01-19T08:23:59.035Z,98818.34
2023-01-19T08:27:03.904Z,98815.72
2023-01-19T08:30:11.008Z,98822.75
2023-01-19T08:33:15.233Z,98819.13
2023-01-19T08:36:28.664Z,98819.44
2023-01-19T08:39:33.143Z,98824.00
2023-01-19T08:42:42.829Z,98834.13
2023-01-19T08:45:52.084Z,98839.72
2023-01-19T08:48:58.289Z,98831.88
2023-01-19T08:52:03.382Z,98834.19
2023-01-19T08:55:08.654Z,98846.81
2023-01-19T08:58:12.453Z,98848.94
2023-01-19T09:01:20.723Z,98847.09
2023-01-19T09:04:27.437Z,98835.03
2023-01-19T09:07:35.338Z,98836.13
2023-01-19T09:10:40.472Z,98832.53
2023-01-19T09:13:46.685Z,98830.75
2023-01-19T09:16:51.635Z,98831.25
2023-01-19T09:19:57.050Z,98828.63
2023-01-19T09:23:03.123Z,98835.00
2023-01-19T09:26:07.508Z,98851.38
2023-01-19T09:29:11.242Z,98840.19
2023-01-19T09:32:16.232Z,98834.66
2023-01-19T09:35:20.027Z,98826.16
2023-01-19T09:38:26.167Z,98830.41
2023-01-19T09:41:31.315Z,98836.63
2023-01-19T09:44:37.156Z,98836.28
2023-01-19T09:47:44.412Z,98832.16
2023-01-19T09:50:51.116Z,98826.75
2023-01-19T09:54:17.116Z,98820.25
2023-01-19T09:57:36.269Z,98829.38
2023-01-19T10:00:40.257Z,98838.84
2023-01-19T10:03:45.223Z,98833.06
2023-01-19T10:06:49.315Z,98834.84
2023-01-19T10:09:59.484Z,98838.59
2023-01-19T10:13:02.988Z,98837.75
2023-01-19T10:16:07.419Z,98846.06
2023-01-19T10:19:23.698Z,98853.28
2023-01-19T10:22:29.245Z,98846.53
2023-01-19T10:25:34.663Z,98860.22
2023-01-19T10:28:41.037Z,98859.88
2023-01-19T10:31:47.174Z,98857.53
2023-01-19T10:34:51.927Z,98850.16
2023-01-19T10:37:59.114Z,98862.41
2023-01-19T10:41:07.388Z,98863.69
2023-01-19T10:44:12.911Z,98859.28
2023-01-19T10:47:18.292Z,98864.84
2023-01-19T10:50:25.715Z,98872.19
2023-01-19T10:53:30.986Z,98870.16
2023-01-19T10:56:35.770Z,98874.72
2023-01-19T10:59:47.700Z,98872.53
2023-01-19T11:02:51.611Z,98875.97
2023-01-19T11:06:16.045Z,98880.09
2023-01-19T11:09:23.321Z,98876.12
2023-01-19T11:12:29.156Z,98885.94
2023-01-19T11:15:36.716Z,98879.56
2023-01-19T11:18:43.163Z,98873.81
2023-01-19T11:21:47.205Z,98874.19
2023-01-19T11:24:53.384Z,98882.81
2023-01-19T11:27:58.209Z,98880.47
2023-01-19T11:31:04.176Z,98871.75
2023-01-19T11:34:26.357Z,98870.91
2023-01-19T11:37:35.067Z,98877.44
2023-01-19T11:40:41.277Z,98879.44
2023-01-19T11:43:49.291Z,98888.03
2023-01-19T11:47:01.190Z,98881.59
2023-01-19T11:50:07.809Z,98886.91
2023-01-19T11:53:11.323Z,98892.53
2023-01-19T11:56:15.804Z,98887.94
2023-01-19T11:59:20.687Z,98898.41
2023-01-19T12:02:33.177Z,98892.72
2023-01-19T12:05:40.535Z,98905.91
2023-01-19T12:08:45.886Z,98908.78
2023-01-19T12:11:52.853Z,98913.00
2023-01-19T12:15:03.286Z,98910.37
2023-01-19T12:18:15.946Z,98922.19
2023-01-19T12:21:20.619Z,98926.44
2023-01-19T12:24:38.192Z,98934.22
2023-01-19T12:27:44.292Z,98928.16
2023-01-19T12:30:49.692Z,98936.84
2023-01-19T12:33:54.357Z,98928.81
2023-01-19T12:37:03.151Z,98938.19
2023-01-19T12:40:25.588Z,98943.34
2023-01-19T12:43:30.149Z,98939.91
2023-01-19T12:46:35.143Z,98952.00
2023-01-19T12:49:40.230Z,98948.13
2023-01-19T12:52:52.184Z,98950.19
2023-01-19T12:56:06.510Z,98970.31
2023-01-19T12:59:22.423Z,98974.56
2023-01-19T13:02:39.064Z,98979.53
2023-01-19T13:05:42.862Z,98974.06
2023-01-19T13:09:07.368Z,98971.28
2023-01-19T13:12:14.036Z,98983.09
2023-01-19T13:15:29.769Z,98989.38
2023-01-19T13:18:42.294Z,98999.09
2023-01-19T13:21:47.642Z,99014.19
2023-01-19T13:25:08.516Z,99024.66
2023-01-19T13:28:14.998Z,99030.81
2023-01-19T13:31:20.031Z,99038.13
2023-01-19T13:34:26.433Z,99030.28
2023-01-19T13:37:34.051Z,99043.53
2023-01-19T13:40:39.253Z,99051.81
2023-01-19T13:43:43.444Z,99047.25
2023-01-19T13:46:47.777Z,99052.88
2023-01-19T13:49:58.826Z,99063.63
2023-01-19T13:53:05.343Z,99072.16
2023-01-19T13:56:17.642Z,99077.84
2023-01-19T13:59:21.624Z,99075.81
2023-01-19T14:02:25.827Z,99087.25
2023-01-19T14:05:32.350Z,99086.03
2023-01-19T14:08:37.094Z,99100.09
2023-01-19T14:11:42.523Z,99097.97
2023-01-19T14:14:50.942Z,99103.75
2023-01-19T14:18:09.149Z,99093.31
2023-01-19T14:21:14.467Z,99086.50
2023-01-19T14:24:21.188Z,99076.16
2023-01-19T14:27:25.643Z,99068.47
2023-01-19T14:30:31.008Z,99070.69
2023-01-19T14:33:35.845Z,99074.03
2023-01-19T14:36:42.852Z,99088.50
2023-01-19T14:39:50.765Z,99097.31
2023-01-19T14:42:56.071Z,99103.50
2023-01-19T14:46:00.136Z,99095.81
2023-01-19T14:49:06.372Z,99105.56
2023-01-19T14:52:22.329Z,99117.97
2023-01-19T14:55:32.164Z,99124.16
2023-01-19T14:58:37.366Z,99123.03
2023-01-19T15:01:48.501Z,99130.34
2023-01-19T15:04:56.553Z,99144.94
2023-01-19T15:08:03.542Z,99159.12
2023-01-19T15:11:12.436Z,99170.81
2023-01-19T15:14:17.411Z,99185.56
2023-01-19T15:17:29.645Z,99194.88
2023-01-19T15:20:34.794Z,99199.03
2023-01-19T15:23:39.929Z,99189.66
2023-01-19T15:26:45.659Z,99193.37
2023-01-19T15:29:49.943Z,99185.13
2023-01-19T15:32:56.061Z,99179.06
2023-01-19T15:36:00.701Z,99185.25
2023-01-19T15:39:06.600Z,99196.25
2023-01-19T15:42:16.343Z,99200.22
2023-01-19T15:45:38.343Z,99214.81
2023-01-19T15:48:45.735Z,99215.09
2023-01-19T15:51:52.641Z,99200.94
2023-01-19T15:54:59.018Z,99209.59
2023-01-19T15:58:05.475Z,99219.22
2023-01-19T16:01:17.473Z,99228.31
2023-01-19T16:04:24.618Z,99233.38
2023-01-19T16:07:29.788Z,99244.00
2023-01-19T16:10:38.142Z,99259.53
2023-01-19T16:13:47.036Z,99261.19
2023-01-19T16:16:54.408Z,99260.22
2023-01-19T16:20:00.511Z,99261.75
2023-01-19T16:23:15.963Z,99283.75
2023-01-19T16:26:28.312Z,99298.75
2023-01-19T16:29:35.664Z,99296.16
2023-01-19T16:32:43.100Z,99290.34
2023-01-19T16:35:51.530Z,99301.34
2023-01-19T16:39:08.778Z,99308.94
2023-01-19T16:42:13.986Z,99325.56
2023-01-19T16:45:19.543Z,99316.78
2023-01-19T16:48:25.884Z,99349.94
2023-01-19T16:51:34.123Z,99356.94
2023-01-19T16:54:43.670Z,99362.72
2023-01-19T16:57:51.703Z,99364.25
2023-01-19T17:00:58.115Z,99366.72
2023-01-19T17:04:05.926Z,99372.22
2023-01-19T17:07:12.113Z,99367.69
2023-01-19T17:10:17.496Z,99358.72
2023-01-19T17:13:23.036Z,99390.81
2023-01-19T17:16:31.301Z,99382.25
2023-01-19T17:19:37.462Z,99394.91
2023-01-19T17:22:43.189Z,99399.75
2023-01-19T17:25:56.623Z,99408.69
2023-01-19T17:29:05.332Z,99415.41
2023-01-19T17:32:12.782Z,99426.44
2023-01-19T17:35:19.717Z,99430.97
2023-01-19T17:38:26.011Z,99430.97
2023-01-19T17:41:38.051Z,99431.09
2023-01-19T17:44:48.262Z,99433.59
2023-01-19T17:47:55.771Z,99434.28
2023-01-19T17:51:07.691Z,99426.16
2023-01-19T17:54:14.588Z,99434.12
2023-01-19T17:57:20.945Z,99433.72
2023-01-19T18:00:28.418Z,99435.66
2023-01-19T18:03:35.158Z,99429.72
2023-01-19T18:06:44.560Z,99441.81
2023-01-19T18:09:56.589Z,99443.91
2023-01-19T18:13:04.047Z,99449.66
2023-01-19T18:16:12.228Z,99444.56
2023-01-19T18:19:21.627Z,99452.16
2023-01-19T18:22:29.563Z,99441.53
2023-01-19T18:25:36.910Z,99449.94
2023-01-19T18:28:49.768Z,99452.13
2023-01-19T18:31:56.965Z,99454.88
2023-01-19T18:35:07.500Z,99458.56
2023-01-19T18:38:14.030Z,99460.66
2023-01-19T18:41:22.429Z,99467.37
2023-01-19T18:44:30.283Z,99474.50
2023-01-19T18:47:38.548Z,99477.25
2023-01-19T18:50:45.404Z,99469.97
2023-01-19T18:53:54.185Z,99467.19
2023-01-19T18:57:00.528Z,99468.53
2023-01-19T19:00:11.811Z,99468.94
2023-01-19T19:03:18.949Z,99474.87
2023-01-19T19:06:30.188Z,99482.59
2023-01-19T19:09:38.571Z,99482.00
2023-01-19T19:12:51.763Z,99484.88
2023-01-19T19:16:11.637Z,99490.50
2023-01-19T19:19:18.472Z,99503.44
2023-01-19T19:22:26.010Z,99509.06
2023-01-19T19:25:38.224Z,99509.50
2023-01-19T19:28:46.291Z,99511.00
2023-01-19T19:31:55.644Z,99522.16
2023-01-19T19:35:01.631Z,99531.62
2023-01-19T19:38:11.602Z,99540.12
2023-01-19T19:41:20.614Z,99542.19
2023-01-19T19:44:28.365Z,99544.47
2023-01-19T19:47:36.897Z,99553.31
2023-01-19T19:50:44.911Z,99547.66
2023-01-19T19:53:53.940Z,99566.75
2023-01-19T19:57:02.067Z,99563.09
2023-01-19T20:00:08.720Z,99573.75
2023-01-19T20:03:19.035Z,99561.34
2023-01-19T20:06:26.294Z,99569.31
2023-01-19T20:09:33.398Z,99570.97
2023-01-19T20:12:40.972Z,99576.19
2023-01-19T20:15:46.819Z,99568.75
2023-01-19T20:18:55.300Z,99577.97
2023-01-19T20:22:03.815Z,99559.13
2023-01-19T20:25:12.386Z,99564.59
2023-01-19T20:28:19.630Z,99559.75
2023-01-19T20:31:28.725Z,99567.41
2023-01-19T20:34:38.446Z,99573.34
2023-01-19T20:37:44.090Z,99571.63
2023-01-19T20:40:51.369Z,99574.47
2023-01-19T20:43:58.425Z,99583.47
2023-01-19T20:47:07.105Z,99578.84
2023-01-19T20:50:19.497Z,99591.34
2023-01-19T20:53:24.482Z,99590.56
2023-01-19T20:56:32.308Z,99598.16
2023-01-19T20:59:39.572Z,99591.84
2023-01-19T21:02:48.894Z,99578.72
2023-01-19T21:05:57.996Z,99581.09
2023-01-19T21:09:04.905Z,99579.16
2023-01-19T21:12:11.859Z,99582.03
2023-01-19T21:15:18.671Z,99582.22
2023-01-19T21:18:23.467Z,99592.66
2023-01-19T21:21:31.812Z,99591.72
2023-01-19T21:24:44.444Z,99580.09
2023-01-19T21:27:55.078Z,99581.94
2023-01-19T21:31:09.352Z,99584.31
2023-01-19T21:34:16.016Z,99587.47
2023-01-19T21:37:23.574Z,99579.66
2023-01-19T21:40:30.372Z,99588.19
2023-01-19T21:43:38.577Z,99594.84
2023-01-19T21:46:44.372Z,99608.12
2023-01-19T21:49:54.493Z,99620.47
2023-01-19T21:53:00.889Z,99649.06
2023-01-19T21:56:11.992Z,99683.47
2023-01-19T21:59:20.263Z,99709.69
2023-01-19T22:02:37.951Z,99712.66
2023-01-19T22:05:44.844Z,99694.38
2023-01-19T22:08:51.618Z,99674.94
2023-01-19T22:11:59.870Z,99651.41
2023-01-19T22:15:04.025Z,99641.69
2023-01-19T22:18:12.701Z,99633.13
2023-01-19T22:21:20.343Z,99648.78
2023-01-19T22:24:24.585Z,99661.75
2023-01-19T22:27:38.485Z,99670.53
2023-01-19T22:30:49.075Z,99655.22
2023-01-19T22:33:55.585Z,99654.97
2023-01-19T22:37:02.256Z,99647.28
2023-01-19T22:40:09.780Z,99661.97
2023-01-19T22:43:16.062Z,99668.16
2023-01-19T22:46:22.751Z,99645.97
2023-01-19T22:49:30.631Z,99641.97
2023-01-19T22:52:39.159Z,99642.31
2023-01-19T22:55:45.291Z,99656.78
2023-01-19T22:58:51.047Z,99650.13
2023-01-19T23:01:56.126Z,99653.66
2023-01-19T23:05:02.548Z,99644.78
2023-01-19T23:08:12.640Z,99647.28
2023-01-19T23:11:22.168Z,99637.63
2023-01-19T23:14:31.527Z,99631.38
2023-01-19T23:17:40.741Z,99604.97
2023-01-19T23:20:49.562Z,99599.09
2023-01-19T23:23:59.237Z,99604.97
2023-01-19T23:27:09.232Z,99608.81
2023-01-19T23:30:19.730Z,99605.53
2023-01-19T23:33:29.822Z,99610.19
2023-01-19T23:36:39.091Z,99618.34
2023-01-19T23:39:48.745Z,99619.06
2023-01-19T23:42:56.928Z,99625.00
2023-01-19T23:46:09.328Z,99634.72
2023-01-19T23:49:14.857Z,99631.91
2023-01-19T23:52:21.241Z,99637.00
2023-01-19T23:55:25.642Z,99642.94
2023-01-19T23:58:32.580Z,99651.41
